createdAt,value
2022-10-10T00:01:16.151Z,8.80
2022-10-10T00:03:44.525Z,7.22
2022-10-10T00:06:13.026Z,4.30
2022-10-10T00:08:40.644Z,3.60
2022-10-10T00:11:08.328Z,2.95
2022-10-10T00:13:36.173Z,5.55
2022-10-10T00:16:04.460Z,10.52
2022-10-10T00:18:32.999Z,6.70
2022-10-10T00:21:00.521Z,4.47
2022-10-10T00:23:28.366Z,6.20
2022-10-10T00:25:55.923Z,3.33
2022-10-10T00:28:23.734Z,3.20
2022-10-10T00:30:51.304Z,3.63
2022-10-10T00:33:19.224Z,4.75
2022-10-10T00:35:46.676Z,6.68
2022-10-10T00:38:14.175Z,1.15
2022-10-10T00:40:47.164Z,4.10
2022-10-10T00:43:15.392Z,3.25
2022-10-10T00:45:45.820Z,4.30
2022-10-10T00:48:29.579Z,7.90
2022-10-10T00:51:13.506Z,3.28
2022-10-10T00:54:09.369Z,4.88
2022-10-10T00:56:45.490Z,6.10
2022-10-10T01:01:41.729Z,8.40
2022-10-10T01:04:41.652Z,5.30
2022-10-10T01:07:22.179Z,3.25
2022-10-10T01:09:52.463Z,5.72
2022-10-10T01:12:28.432Z,2.70
2022-10-10T01:17:47.817Z,2.20
2022-10-10T01:20:40.457Z,7.20
2022-10-10T01:23:19.776Z,3.25
2022-10-10T01:26:00.941Z,5.10
2022-10-10T01:28:37.130Z,6.85
2022-10-10T01:31:08.691Z,3.22
2022-10-10T01:34:09.089Z,4.07
2022-10-10T01:36:47.702Z,6.22
2022-10-10T01:39:31.555Z,4.90
2022-10-10T01:42:10.447Z,4.93
2022-10-10T01:44:37.929Z,3.70
2022-10-10T01:47:05.416Z,4.95
2022-10-10T01:49:35.055Z,3.92
2022-10-10T01:52:26.819Z,4.75
2022-10-10T01:55:09.561Z,5.05
2022-10-10T01:57:52.413Z,4.68
2022-10-10T02:00:20.167Z,2.33
2022-10-10T02:02:54.812Z,5.63
2022-10-10T02:05:41.354Z,2.97
2022-10-10T02:08:11.105Z,8.38
2022-10-10T02:10:48.049Z,3.47
2022-10-10T02:13:18.414Z,2.88
2022-10-10T02:15:53.399Z,1.60
2022-10-10T02:18:23.229Z,5.07
2022-10-10T02:20:52.975Z,9.88
2022-10-10T02:23:22.426Z,4.03
2022-10-10T02:25:56.235Z,3.15
2022-10-10T02:28:43.580Z,6.20
2022-10-10T02:31:17.470Z,6.50
2022-10-10T02:33:56.628Z,3.38
2022-10-10T02:36:25.886Z,4.10
2022-10-10T02:38:55.196Z,6.55
2022-10-10T02:41:23.488Z,3.35
2022-10-10T02:43:52.463Z,6.68
2022-10-10T02:46:20.158Z,5.07
2022-10-10T02:48:47.684Z,6.22
2022-10-10T02:51:17.098Z,4.80
2022-10-10T02:53:44.848Z,2.38
2022-10-10T02:56:12.408Z,6.95
2022-10-10T02:58:40.020Z,5.13
2022-10-10T03:01:07.566Z,1.92
2022-10-10T03:03:35.020Z,5.85
2022-10-10T03:06:03.157Z,2.63
2022-10-10T03:08:30.552Z,4.13
2022-10-10T03:11:00.435Z,5.13
2022-10-10T03:13:28.402Z,4.18
2022-10-10T03:15:56.058Z,5.00
2022-10-10T03:18:23.881Z,4.47
2022-10-10T03:20:53.535Z,4.38
2022-10-10T03:23:21.914Z,6.82
2022-10-10T03:25:49.572Z,7.78
2022-10-10T03:28:17.292Z,8.57
2022-10-10T03:30:44.900Z,7.60
2022-10-10T03:33:12.392Z,6.20
2022-10-10T03:35:39.918Z,4.65
2022-10-10T03:38:07.583Z,3.38
2022-10-10T03:40:38.550Z,5.20
2022-10-10T03:43:06.108Z,3.72
2022-10-10T03:45:33.570Z,4.80
2022-10-10T03:48:01.041Z,6.68
2022-10-10T03:50:28.931Z,4.70
2022-10-10T03:52:56.514Z,2.35
2022-10-10T03:55:23.933Z,2.53
2022-10-10T03:57:51.433Z,2.70
2022-10-10T04:00:20.733Z,4.05
2022-10-10T04:02:48.613Z,6.50
2022-10-10T04:05:16.462Z,7.20
2022-10-10T04:07:43.970Z,3.83
2022-10-10T04:10:11.481Z,3.33
2022-10-10T04:12:38.974Z,4.57
2022-10-10T04:15:07.057Z,2.90
2022-10-10T04:17:34.466Z,1.80
2022-10-10T04:20:01.950Z,4.38
2022-10-10T04:22:29.636Z,2.03
2022-10-10T04:24:57.151Z,4.65
2022-10-10T04:27:24.729Z,7.15
2022-10-10T04:29:52.304Z,2.85
2022-10-10T04:32:19.732Z,2.03
2022-10-10T04:34:47.287Z,3.58
2022-10-10T04:37:14.890Z,7.18
2022-10-10T04:39:42.405Z,5.47
2022-10-10T04:42:09.963Z,7.22
2022-10-10T04:44:37.731Z,2.50
2022-10-10T04:47:05.187Z,5.07
2022-10-10T04:49:32.776Z,2.45
2022-10-10T04:52:00.193Z,2.50
2022-10-10T04:54:27.795Z,2.13
2022-10-10T04:56:55.345Z,3.05
2022-10-10T04:59:23.101Z,5.57
2022-10-10T05:01:50.592Z,4.45
2022-10-10T05:04:18.196Z,2.53
2022-10-10T05:06:45.697Z,3.40
2022-10-10T05:09:13.227Z,3.47
2022-10-10T05:11:40.683Z,4.90
2022-10-10T05:14:08.641Z,3.03
2022-10-10T05:16:36.098Z,4.30
2022-10-10T05:19:03.797Z,2.92
2022-10-10T05:21:31.729Z,3.58
2022-10-10T05:23:59.220Z,2.30
2022-10-10T05:26:27.037Z,3.55
2022-10-10T05:28:54.730Z,3.53
2022-10-10T05:31:22.167Z,4.80
2022-10-10T05:33:49.633Z,6.28
2022-10-10T05:36:17.204Z,3.83
2022-10-10T05:38:44.754Z,4.85
2022-10-10T05:41:12.738Z,3.60
2022-10-10T05:43:40.279Z,2.55
2022-10-10T05:46:07.785Z,1.90
2022-10-10T05:48:35.337Z,1.45
2022-10-10T05:51:02.791Z,5.22
2022-10-10T05:53:30.844Z,2.08
2022-10-10T05:56:00.698Z,2.28
2022-10-10T05:58:28.295Z,4.55
2022-10-10T06:00:55.737Z,4.75
2022-10-10T06:03:23.239Z,5.78
2022-10-10T06:05:51.958Z,4.65
2022-10-10T06:08:19.459Z,4.05
2022-10-10T06:10:47.150Z,3.42
2022-10-10T06:13:20.368Z,6.70
2022-10-10T06:15:52.123Z,4.80
2022-10-10T06:18:19.542Z,5.85
2022-10-10T06:20:47.032Z,7.43
2022-10-10T06:23:14.538Z,5.00
2022-10-10T06:25:42.460Z,5.70
2022-10-10T06:28:10.844Z,3.22
2022-10-10T06:30:48.453Z,3.95
2022-10-10T06:33:19.145Z,7.25
2022-10-10T06:35:49.448Z,5.15
2022-10-10T06:38:17.379Z,6.10
2022-10-10T06:40:45.681Z,3.90
2022-10-10T06:43:14.635Z,6.22
2022-10-10T06:45:44.621Z,2.92
2022-10-10T06:48:13.685Z,4.10
2022-10-10T06:50:41.179Z,6.13
2022-10-10T06:53:09.110Z,3.88
2022-10-10T06:55:36.700Z,6.93
2022-10-10T06:58:04.333Z,5.63
2022-10-10T07:00:32.104Z,3.20
2022-10-10T07:02:59.594Z,4.50
2022-10-10T07:05:27.270Z,3.80
2022-10-10T07:07:54.907Z,3.15
2022-10-10T07:10:22.850Z,13.55
2022-10-10T07:12:50.309Z,5.20
2022-10-10T07:15:17.870Z,8.68
2022-10-10T07:17:47.355Z,5.57
2022-10-10T07:20:18.176Z,5.05
2022-10-10T07:22:45.676Z,6.78
2022-10-10T07:25:14.745Z,7.50
2022-10-10T07:27:42.274Z,6.45
2022-10-10T07:30:10.422Z,6.60
2022-10-10T07:32:37.948Z,2.03
2022-10-10T07:35:06.970Z,3.83
2022-10-10T07:37:34.532Z,4.38
2022-10-10T07:40:02.167Z,7.50
2022-10-10T07:42:29.625Z,5.22
2022-10-10T07:44:57.163Z,7.03
2022-10-10T07:47:24.637Z,3.25
2022-10-10T07:49:52.031Z,3.45
2022-10-10T07:52:19.580Z,6.78
2022-10-10T07:54:47.007Z,7.28
2022-10-10T07:57:14.746Z,4.75
2022-10-10T07:59:45.723Z,7.63
2022-10-10T08:02:13.355Z,6.20
2022-10-10T08:04:41.038Z,6.50
2022-10-10T08:07:08.924Z,3.90
2022-10-10T08:09:36.462Z,5.72
2022-10-10T08:12:04.839Z,5.47
2022-10-10T08:14:32.324Z,15.57
2022-10-10T08:16:59.753Z,8.30
2022-10-10T08:19:27.246Z,10.15
2022-10-10T08:21:54.798Z,4.28
2022-10-10T08:24:22.272Z,4.93
2022-10-10T08:26:50.984Z,5.78
2022-10-10T08:29:18.718Z,3.72
2022-10-10T08:31:48.191Z,5.80
2022-10-10T08:34:15.780Z,3.85
2022-10-10T08:36:43.659Z,4.10
2022-10-10T08:39:11.427Z,8.02
2022-10-10T08:41:53.990Z,10.18
2022-10-10T08:44:45.817Z,6.38
2022-10-10T08:47:18.347Z,8.57
2022-10-10T08:49:48.511Z,5.15
2022-10-10T08:52:38.393Z,5.65
2022-10-10T08:55:33.785Z,5.55
2022-10-10T08:58:19.010Z,6.25
2022-10-10T09:01:07.984Z,6.47
2022-10-10T09:03:51.132Z,5.55
2022-10-10T09:06:46.062Z,8.70
2022-10-10T09:09:38.055Z,3.30
2022-10-10T09:12:26.869Z,9.40
2022-10-10T09:15:03.889Z,5.85
2022-10-10T09:17:51.825Z,7.47
2022-10-10T09:20:34.080Z,6.97
2022-10-10T09:23:06.085Z,9.00
2022-10-10T09:25:45.244Z,8.63
2022-10-10T09:28:30.668Z,4.63
2022-10-10T09:31:01.551Z,4.15
2022-10-10T09:33:49.393Z,11.10
2022-10-10T09:36:21.292Z,11.88
2022-10-10T09:38:54.505Z,7.82
2022-10-10T09:41:43.891Z,9.75
2022-10-10T09:44:13.500Z,11.20
2022-10-10T09:46:41.072Z,13.50
2022-10-10T09:49:16.970Z,12.70
2022-10-10T09:54:15.622Z,15.32
2022-10-10T09:56:53.513Z,9.80
2022-10-10T09:59:42.521Z,12.77
2022-10-10T10:02:19.845Z,16.98
2022-10-10T10:04:49.276Z,15.93
2022-10-10T10:07:32.201Z,20.08
2022-10-10T10:10:18.197Z,14.63
2022-10-10T10:12:46.531Z,12.10
2022-10-10T10:15:24.185Z,11.57
2022-10-10T10:18:11.981Z,14.45
2022-10-10T10:20:51.048Z,13.43
2022-10-10T10:23:33.845Z,11.95
2022-10-10T10:26:14.726Z,15.77
2022-10-10T10:28:43.382Z,16.27
2022-10-10T10:31:42.551Z,14.90
2022-10-10T10:34:41.473Z,11.70
2022-10-10T10:37:21.768Z,12.30
2022-10-10T10:40:07.228Z,14.63
2022-10-10T10:42:40.537Z,15.95
2022-10-10T10:45:22.408Z,8.75
2022-10-10T10:48:17.871Z,13.25
2022-10-10T10:50:54.292Z,15.05
2022-10-10T10:53:43.846Z,14.10
2022-10-10T10:56:26.009Z,14.00
2022-10-10T10:59:41.692Z,12.50
2022-10-10T11:02:08.264Z,16.15
2022-10-10T11:05:22.472Z,13.75
2022-10-10T11:07:53.472Z,8.63
2022-10-10T11:10:30.549Z,14.85
2022-10-10T11:13:03.210Z,14.27
2022-10-10T11:16:04.952Z,14.45
2022-10-10T11:18:37.071Z,14.13
2022-10-10T11:21:22.413Z,11.52
2022-10-10T11:24:04.097Z,12.60
2022-10-10T11:26:38.732Z,16.48
2022-10-10T11:29:21.233Z,11.60
2022-10-10T11:35:07.438Z,10.20
2022-10-10T11:37:38.932Z,18.27
2022-10-10T11:40:07.230Z,14.13
2022-10-10T11:42:49.029Z,19.50
2022-10-10T11:45:23.273Z,13.40
2022-10-10T11:47:59.097Z,11.77
2022-10-10T11:50:40.131Z,9.98
2022-10-10T11:53:32.407Z,12.38
2022-10-10T11:56:27.616Z,11.20
2022-10-10T11:59:04.888Z,10.88
2022-10-10T12:01:41.628Z,7.03
2022-10-10T12:04:09.222Z,6.40
2022-10-10T12:07:02.240Z,8.35
2022-10-10T12:09:39.048Z,8.57
2022-10-10T12:12:12.858Z,6.97
2022-10-10T12:14:45.513Z,7.90
2022-10-10T12:17:24.791Z,11.15
2022-10-10T12:19:52.548Z,12.00
2022-10-10T12:22:29.825Z,9.52
2022-10-10T12:25:35.188Z,12.10
2022-10-10T12:28:04.892Z,10.02
2022-10-10T12:30:32.578Z,10.93
2022-10-10T12:33:00.172Z,12.13
2022-10-10T12:35:38.672Z,10.52
2022-10-10T12:38:06.688Z,12.40
2022-10-10T12:40:34.990Z,12.98
2022-10-10T12:43:23.328Z,12.85
2022-10-10T12:45:53.638Z,9.40
2022-10-10T12:48:23.423Z,12.35
2022-10-10T12:50:59.999Z,12.98
2022-10-10T12:53:31.302Z,10.18
2022-10-10T12:56:01.260Z,8.20
2022-10-10T12:58:39.466Z,13.95
2022-10-10T13:01:23.799Z,11.35
2022-10-10T13:03:53.419Z,12.25
2022-10-10T13:06:44.150Z,10.63
2022-10-10T13:09:23.939Z,10.43
2022-10-10T13:12:00.231Z,6.88
2022-10-10T13:14:39.179Z,8.43
2022-10-10T13:17:22.694Z,10.20
2022-10-10T13:19:51.287Z,7.85
2022-10-10T13:22:19.769Z,8.18
2022-10-10T13:24:49.087Z,5.88
2022-10-10T13:27:31.260Z,4.28
2022-10-10T13:29:59.420Z,5.07
2022-10-10T13:32:33.489Z,7.25
2022-10-10T13:35:16.838Z,8.73
2022-10-10T13:37:47.541Z,9.00
2022-10-10T13:40:17.205Z,10.35
2022-10-10T13:42:48.532Z,12.18
2022-10-10T13:45:43.960Z,8.43
2022-10-10T13:48:18.090Z,6.13
2022-10-10T13:50:48.754Z,12.27
2022-10-10T13:53:33.173Z,9.48
2022-10-10T13:56:20.803Z,9.73
2022-10-10T13:59:01.348Z,10.90
2022-10-10T14:01:36.696Z,11.60
2022-10-10T14:04:13.062Z,10.95
2022-10-10T14:06:42.927Z,8.57
2022-10-10T14:09:26.421Z,12.38
2022-10-10T14:11:55.574Z,14.65
2022-10-10T14:14:31.895Z,11.73
2022-10-10T14:17:00.065Z,10.18
2022-10-10T14:19:28.253Z,8.48
2022-10-10T14:21:56.160Z,5.88
2022-10-10T14:24:23.894Z,12.05
2022-10-10T14:26:51.692Z,5.50
2022-10-10T14:29:20.297Z,9.32
2022-10-10T14:31:48.509Z,9.60
2022-10-10T14:34:16.373Z,9.40
2022-10-10T14:36:50.979Z,8.13
2022-10-10T14:39:19.883Z,10.73
2022-10-10T14:41:47.550Z,7.60
2022-10-10T14:44:15.130Z,5.43
2022-10-10T14:46:43.078Z,7.47
2022-10-10T14:49:19.878Z,4.75
2022-10-10T14:51:48.359Z,6.97
2022-10-10T14:54:15.987Z,5.75
2022-10-10T14:57:08.701Z,4.47
2022-10-10T14:59:46.124Z,5.45
2022-10-10T15:02:19.669Z,6.47
2022-10-10T15:04:47.626Z,6.28
2022-10-10T15:07:15.984Z,4.38
2022-10-10T15:10:09.693Z,6.43
2022-10-10T15:12:35.055Z,8.32
2022-10-10T15:15:02.685Z,5.38
2022-10-10T15:17:33.724Z,9.15
2022-10-10T15:20:06.147Z,5.55
2022-10-10T15:22:33.838Z,3.33
2022-10-10T15:25:01.540Z,4.85
2022-10-10T15:27:29.139Z,4.85
2022-10-10T15:29:56.685Z,5.28
2022-10-10T15:32:24.681Z,5.00
2022-10-10T15:34:53.019Z,2.15
2022-10-10T15:37:20.708Z,5.18
2022-10-10T15:39:48.348Z,5.28
2022-10-10T15:42:21.444Z,5.03
2022-10-10T15:44:50.965Z,4.80
2022-10-10T15:47:19.235Z,4.68
2022-10-10T15:49:46.971Z,3.75
2022-10-10T15:52:15.089Z,3.78
2022-10-10T15:54:42.548Z,8.82
2022-10-10T15:57:09.956Z,5.15
2022-10-10T15:59:43.411Z,4.20
2022-10-10T16:02:12.590Z,5.38
2022-10-10T16:04:40.152Z,4.07
2022-10-10T16:09:55.267Z,9.48
2022-10-10T16:12:22.692Z,4.95
2022-10-10T16:14:50.227Z,8.43
2022-10-10T16:17:22.955Z,5.10
2022-10-10T16:19:51.330Z,6.80
2022-10-10T16:22:18.873Z,3.22
2022-10-10T16:24:58.218Z,5.63
2022-10-10T16:27:36.353Z,2.50
2022-10-10T16:30:04.909Z,3.20
2022-10-10T16:32:35.768Z,5.53
2022-10-10T16:35:05.758Z,7.18
2022-10-10T16:37:33.171Z,5.13
2022-10-10T16:40:00.674Z,6.85
2022-10-10T16:42:28.301Z,3.50
2022-10-10T16:44:56.161Z,7.13
2022-10-10T16:47:23.623Z,4.95
2022-10-10T16:49:51.105Z,2.17
2022-10-10T16:52:18.843Z,4.13
2022-10-10T16:54:51.159Z,3.17
2022-10-10T16:57:19.994Z,3.33
2022-10-10T16:59:47.440Z,3.15
2022-10-10T17:02:15.012Z,3.40
2022-10-10T17:04:42.464Z,3.97
2022-10-10T17:07:09.886Z,2.92
2022-10-10T17:09:37.419Z,4.63
2022-10-10T17:12:07.325Z,2.70
2022-10-10T17:14:34.803Z,4.28
2022-10-10T17:17:17.497Z,2.55
2022-10-10T17:19:45.477Z,5.70
2022-10-10T17:22:12.892Z,2.95
2022-10-10T17:24:40.356Z,5.45
2022-10-10T17:27:07.963Z,5.65
2022-10-10T17:29:35.418Z,4.38
2022-10-10T17:32:06.554Z,2.40
2022-10-10T17:34:35.310Z,5.47
2022-10-10T17:37:03.685Z,1.30
2022-10-10T17:39:31.951Z,4.43
2022-10-10T17:42:00.068Z,4.22
2022-10-10T17:44:27.750Z,3.85
2022-10-10T17:46:55.228Z,3.20
2022-10-10T17:49:22.837Z,5.20
2022-10-10T17:51:50.611Z,5.10
2022-10-10T17:54:18.440Z,3.63
2022-10-10T17:56:46.024Z,4.30
2022-10-10T17:59:13.597Z,5.50
2022-10-10T18:01:41.123Z,5.70
2022-10-10T18:04:08.920Z,3.75
2022-10-10T18:06:37.676Z,3.80
2022-10-10T18:09:05.969Z,2.97
2022-10-10T18:11:33.573Z,5.25
2022-10-10T18:14:01.370Z,3.67
2022-10-10T18:16:33.803Z,2.35
2022-10-10T18:19:03.598Z,3.53
2022-10-10T18:21:31.239Z,4.55
2022-10-10T18:23:58.733Z,6.40
2022-10-10T18:26:32.004Z,5.38
2022-10-10T18:28:59.571Z,2.10
2022-10-10T18:31:33.349Z,2.97
2022-10-10T18:34:03.132Z,1.65
2022-10-10T18:36:34.379Z,7.50
2022-10-10T18:39:04.921Z,6.28
2022-10-10T18:41:35.451Z,2.95
2022-10-10T18:44:07.968Z,5.60
2022-10-10T18:46:35.645Z,5.90
2022-10-10T18:49:05.033Z,5.20
2022-10-10T18:51:33.147Z,5.65
2022-10-10T18:54:04.447Z,3.85
2022-10-10T18:56:33.421Z,3.10
2022-10-10T18:59:02.741Z,2.88
2022-10-10T19:01:36.542Z,5.53
2022-10-10T19:04:06.010Z,4.05
2022-10-10T19:06:33.892Z,3.53
2022-10-10T19:09:02.326Z,5.82
2022-10-10T19:11:32.813Z,4.32
2022-10-10T19:14:02.546Z,6.22
2022-10-10T19:16:31.022Z,4.28
2022-10-10T19:18:59.734Z,6.47
2022-10-10T19:21:28.827Z,4.80
2022-10-10T19:23:56.519Z,4.95
2022-10-10T19:26:24.019Z,2.85
2022-10-10T19:28:51.994Z,3.60
2022-10-10T19:31:20.275Z,6.15
2022-10-10T19:33:52.395Z,5.07
2022-10-10T19:36:19.959Z,3.00
2022-10-10T19:38:47.595Z,7.45
2022-10-10T19:41:15.610Z,4.35
2022-10-10T19:43:46.414Z,6.63
2022-10-10T19:46:16.955Z,5.35
2022-10-10T19:48:44.591Z,4.60
2022-10-10T19:51:14.739Z,8.52
2022-10-10T19:53:43.439Z,4.72
2022-10-10T19:56:20.481Z,5.53
2022-10-10T19:58:48.180Z,7.50
2022-10-10T20:01:17.624Z,5.07
2022-10-10T20:03:46.664Z,6.40
2022-10-10T20:06:15.041Z,6.38
2022-10-10T20:08:42.766Z,4.85
2022-10-10T20:11:10.541Z,8.63
2022-10-10T20:13:39.149Z,6.80
2022-10-10T20:16:10.534Z,5.57
2022-10-10T20:18:41.482Z,5.30
2022-10-10T20:21:18.112Z,5.18
2022-10-10T20:23:47.105Z,6.30
2022-10-10T20:26:17.444Z,6.85
2022-10-10T20:28:46.137Z,5.90
2022-10-10T20:31:20.215Z,7.80
2022-10-10T20:33:52.503Z,7.43
2022-10-10T20:36:21.553Z,3.70
2022-10-10T20:38:53.778Z,3.58
2022-10-10T20:41:26.085Z,10.85
2022-10-10T20:43:58.346Z,7.40
2022-10-10T20:46:28.978Z,4.50
2022-10-10T20:48:58.157Z,5.60
2022-10-10T20:51:26.933Z,5.90
2022-10-10T20:53:58.266Z,6.65
2022-10-10T20:56:26.810Z,4.82
2022-10-10T20:58:54.981Z,5.78
2022-10-10T21:01:25.648Z,7.80
2022-10-10T21:03:53.415Z,5.38
2022-10-10T21:06:23.740Z,3.97
2022-10-10T21:08:53.484Z,5.40
2022-10-10T21:11:22.293Z,4.45
2022-10-10T21:13:55.927Z,7.38
2022-10-10T21:16:32.107Z,5.05
2022-10-10T21:19:00.161Z,3.80
2022-10-10T21:21:30.943Z,7.28
2022-10-10T21:23:58.681Z,3.03
2022-10-10T21:26:28.146Z,7.07
2022-10-10T21:28:57.098Z,6.60
2022-10-10T21:31:27.544Z,9.32
2022-10-10T21:33:55.772Z,7.97
2022-10-10T21:36:25.468Z,4.85
2022-10-10T21:38:54.016Z,7.10
2022-10-10T21:41:23.157Z,5.20
2022-10-10T21:43:54.728Z,6.70
2022-10-10T21:46:25.141Z,6.15
2022-10-10T21:48:52.910Z,7.72
2022-10-10T21:51:21.575Z,13.43
2022-10-10T21:53:49.630Z,7.45
2022-10-10T21:56:17.963Z,7.55
2022-10-10T21:58:45.704Z,6.88
2022-10-10T22:01:16.568Z,9.27
2022-10-10T22:03:45.381Z,7.93
2022-10-10T22:06:15.117Z,4.40
2022-10-10T22:08:44.265Z,5.97
2022-10-10T22:11:14.455Z,11.95
2022-10-10T22:13:42.202Z,10.02
2022-10-10T22:16:10.499Z,11.15
2022-10-10T22:18:39.394Z,10.00
2022-10-10T22:21:10.319Z,7.30
2022-10-10T22:23:37.875Z,10.45
2022-10-10T22:26:08.796Z,5.82
2022-10-10T22:28:36.778Z,8.70
2022-10-10T22:31:13.465Z,10.13
2022-10-10T22:33:41.198Z,14.05
2022-10-10T22:36:09.508Z,11.18
2022-10-10T22:38:42.477Z,13.15
2022-10-10T22:41:11.417Z,6.03
2022-10-10T22:43:38.877Z,8.57
2022-10-10T22:46:06.995Z,6.18
2022-10-10T22:48:35.225Z,9.73
2022-10-10T22:51:05.614Z,6.65
2022-10-10T22:53:33.162Z,15.63
2022-10-10T22:56:00.924Z,5.70
2022-10-10T22:58:28.652Z,10.20
2022-10-10T23:00:56.192Z,5.10
2022-10-10T23:03:23.891Z,6.55
2022-10-10T23:05:51.343Z,11.23
2022-10-10T23:08:18.765Z,6.40
2022-10-10T23:10:47.259Z,8.20
2022-10-10T23:13:14.727Z,5.22
2022-10-10T23:15:42.130Z,7.43
2022-10-10T23:18:09.623Z,4.28
2022-10-10T23:20:37.114Z,9.55
2022-10-10T23:23:04.710Z,7.70
2022-10-10T23:25:32.170Z,4.40
2022-10-10T23:27:59.603Z,3.35
2022-10-10T23:30:27.404Z,6.93
2022-10-10T23:32:54.865Z,7.50
2022-10-10T23:35:22.293Z,7.72
2022-10-10T23:37:49.823Z,6.22
2022-10-10T23:40:17.445Z,8.15
2022-10-10T23:42:45.060Z,5.90
2022-10-10T23:45:12.474Z,6.40
2022-10-10T23:47:39.993Z,4.93
2022-10-10T23:50:07.972Z,6.43
2022-10-10T23:52:35.577Z,6.85
2022-10-10T23:55:06.816Z,8.50
2022-10-10T23:57:34.380Z,10.68
